sensor_id;sensor_type;location;lat;lon;timestamp;P1;durP1;ratioP1;P2;durP2;ratioP2
5622;SDS011;2833;50.432;10.706;2023-04-25T00:02:17;11.80;;;6.23;;
5622;SDS011;2833;50.432;10.706;2023-04-25T00:04:42;8.47;;;5.20;;
5622;SDS011;2833;50.432;10.706;2023-04-25T00:07:08;8.70;;;6.10;;
5622;SDS011;2833;50.432;10.706;2023-04-25T00:09:33;8.00;;;5.90;;
5622;SDS011;2833;50.432;10.706;2023-04-25T00:11:59;8.03;;;5.67;;
5622;SDS011;2833;50.432;10.706;2023-04-25T00:14:24;8.60;;;5.63;;
5622;SDS011;2833;50.432;10.706;2023-04-25T00:16:50;12.43;;;5.87;;
5622;SDS011;2833;50.432;10.706;2023-04-25T00:19:16;8.20;;;6.50;;
5622;SDS011;2833;50.432;10.706;2023-04-25T00:21:41;8.60;;;5.30;;
5622;SDS011;2833;50.432;10.706;2023-04-25T00:24:07;7.27;;;5.90;;
5622;SDS011;2833;50.432;10.706;2023-04-25T00:26:33;7.27;;;5.50;;
5622;SDS011;2833;50.432;10.706;2023-04-25T00:28:58;7.67;;;5.60;;
5622;SDS011;2833;50.432;10.706;2023-04-25T00:31:23;7.63;;;5.10;;
5622;SDS011;2833;50.432;10.706;2023-04-25T00:33:49;7.93;;;5.10;;
5622;SDS011;2833;50.432;10.706;2023-04-25T00:36:14;9.07;;;6.70;;
5622;SDS011;2833;50.432;10.706;2023-04-25T00:38:39;7.13;;;5.67;;
5622;SDS011;2833;50.432;10.706;2023-04-25T00:41:07;13.70;;;5.80;;
5622;SDS011;2833;50.432;10.706;2023-04-25T00:43:33;8.37;;;6.17;;
5622;SDS011;2833;50.432;10.706;2023-04-25T00:45:59;7.03;;;5.93;;
5622;SDS011;2833;50.432;10.706;2023-04-25T00:48:24;8.90;;;6.03;;
5622;SDS011;2833;50.432;10.706;2023-04-25T00:50:53;5.90;;;5.20;;
5622;SDS011;2833;50.432;10.706;2023-04-25T00:53:19;9.60;;;6.43;;
5622;SDS011;2833;50.432;10.706;2023-04-25T00:55:45;9.70;;;6.43;;
5622;SDS011;2833;50.432;10.706;2023-04-25T00:58:10;10.90;;;6.47;;
5622;SDS011;2833;50.432;10.706;2023-04-25T01:00:35;9.10;;;6.40;;
5622;SDS011;2833;50.432;10.706;2023-04-25T01:03:01;9.20;;;6.20;;
5622;SDS011;2833;50.432;10.706;2023-04-25T01:05:28;10.10;;;7.17;;
5622;SDS011;2833;50.432;10.706;2023-04-25T01:07:54;9.30;;;6.20;;
5622;SDS011;2833;50.432;10.706;2023-04-25T01:10:19;8.10;;;6.50;;
5622;SDS011;2833;50.432;10.706;2023-04-25T01:12:44;8.40;;;6.57;;
5622;SDS011;2833;50.432;10.706;2023-04-25T01:15:10;8.50;;;6.20;;
5622;SDS011;2833;50.432;10.706;2023-04-25T01:17:35;9.90;;;6.57;;
5622;SDS011;2833;50.432;10.706;2023-04-25T01:20:02;7.63;;;5.97;;
5622;SDS011;2833;50.432;10.706;2023-04-25T01:22:28;8.70;;;6.37;;
5622;SDS011;2833;50.432;10.706;2023-04-25T01:24:53;9.17;;;6.53;;
5622;SDS011;2833;50.432;10.706;2023-04-25T01:27:18;8.33;;;5.80;;
5622;SDS011;2833;50.432;10.706;2023-04-25T01:29:45;8.50;;;6.70;;
5622;SDS011;2833;50.432;10.706;2023-04-25T01:32:10;8.13;;;6.40;;
5622;SDS011;2833;50.432;10.706;2023-04-25T01:34:36;8.73;;;6.33;;
5622;SDS011;2833;50.432;10.706;2023-04-25T01:37:01;10.80;;;7.60;;
5622;SDS011;2833;50.432;10.706;2023-04-25T01:39:29;9.40;;;7.10;;
5622;SDS011;2833;50.432;10.706;2023-04-25T01:41:55;10.07;;;6.77;;
5622;SDS011;2833;50.432;10.706;2023-04-25T01:44:20;11.67;;;7.00;;
5622;SDS011;2833;50.432;10.706;2023-04-25T01:46:45;13.57;;;7.60;;
5622;SDS011;2833;50.432;10.706;2023-04-25T01:49:10;12.60;;;7.87;;
5622;SDS011;2833;50.432;10.706;2023-04-25T01:51:36;8.70;;;6.90;;
5622;SDS011;2833;50.432;10.706;2023-04-25T01:54:01;10.60;;;7.77;;
5622;SDS011;2833;50.432;10.706;2023-04-25T01:56:29;11.13;;;8.10;;
5622;SDS011;2833;50.432;10.706;2023-04-25T01:58:55;9.97;;;7.93;;
5622;SDS011;2833;50.432;10.706;2023-04-25T02:01:20;9.07;;;7.17;;
5622;SDS011;2833;50.432;10.706;2023-04-25T02:03:45;9.20;;;6.90;;
5622;SDS011;2833;50.432;10.706;2023-04-25T02:06:10;9.77;;;7.33;;
5622;SDS011;2833;50.432;10.706;2023-04-25T02:08:36;8.70;;;7.23;;
5622;SDS011;2833;50.432;10.706;2023-04-25T02:11:02;10.73;;;7.57;;
5622;SDS011;2833;50.432;10.706;2023-04-25T02:13:28;10.77;;;7.20;;
5622;SDS011;2833;50.432;10.706;2023-04-25T02:15:53;9.57;;;6.67;;
5622;SDS011;2833;50.432;10.706;2023-04-25T02:18:18;10.00;;;7.63;;
5622;SDS011;2833;50.432;10.706;2023-04-25T02:20:44;13.63;;;7.40;;
5622;SDS011;2833;50.432;10.706;2023-04-25T02:23:10;13.10;;;7.30;;
5622;SDS011;2833;50.432;10.706;2023-04-25T02:25:35;10.60;;;7.10;;
5622;SDS011;2833;50.432;10.706;2023-04-25T02:28:00;10.53;;;7.13;;
5622;SDS011;2833;50.432;10.706;2023-04-25T02:30:25;10.50;;;7.43;;
5622;SDS011;2833;50.432;10.706;2023-04-25T02:32:51;9.57;;;6.80;;
5622;SDS011;2833;50.432;10.706;2023-04-25T02:35:16;9.00;;;7.53;;
5622;SDS011;2833;50.432;10.706;2023-04-25T02:37:41;6.97;;;6.23;;
5622;SDS011;2833;50.432;10.706;2023-04-25T02:40:06;7.83;;;6.03;;
5622;SDS011;2833;50.432;10.706;2023-04-25T02:42:32;6.90;;;5.43;;
5622;SDS011;2833;50.432;10.706;2023-04-25T02:44:57;6.30;;;5.70;;
5622;SDS011;2833;50.432;10.706;2023-04-25T02:47:22;5.60;;;5.10;;
5622;SDS011;2833;50.432;10.706;2023-04-25T02:49:48;6.27;;;5.30;;
5622;SDS011;2833;50.432;10.706;2023-04-25T02:52:13;8.07;;;5.47;;
5622;SDS011;2833;50.432;10.706;2023-04-25T02:54:38;6.53;;;5.60;;
5622;SDS011;2833;50.432;10.706;2023-04-25T02:57:03;6.90;;;5.50;;
5622;SDS011;2833;50.432;10.706;2023-04-25T02:59:29;7.50;;;5.80;;
5622;SDS011;2833;50.432;10.706;2023-04-25T03:01:54;7.43;;;5.67;;
5622;SDS011;2833;50.432;10.706;2023-04-25T03:04:19;6.77;;;5.83;;
5622;SDS011;2833;50.432;10.706;2023-04-25T03:06:45;7.60;;;5.60;;
5622;SDS011;2833;50.432;10.706;2023-04-25T03:09:11;8.80;;;5.57;;
5622;SDS011;2833;50.432;10.706;2023-04-25T03:11:36;6.10;;;5.13;;
5622;SDS011;2833;50.432;10.706;2023-04-25T03:14:02;6.73;;;5.63;;
5622;SDS011;2833;50.432;10.706;2023-04-25T03:16:27;8.73;;;5.97;;
5622;SDS011;2833;50.432;10.706;2023-04-25T03:18:52;6.43;;;5.70;;
5622;SDS011;2833;50.432;10.706;2023-04-25T03:21:17;5.83;;;4.80;;
5622;SDS011;2833;50.432;10.706;2023-04-25T03:23:42;7.37;;;5.80;;
5622;SDS011;2833;50.432;10.706;2023-04-25T03:26:08;6.30;;;5.70;;
5622;SDS011;2833;50.432;10.706;2023-04-25T03:28:33;6.70;;;5.50;;
5622;SDS011;2833;50.432;10.706;2023-04-25T03:30:58;6.43;;;5.13;;
5622;SDS011;2833;50.432;10.706;2023-04-25T03:33:23;12.43;;;5.90;;
5622;SDS011;2833;50.432;10.706;2023-04-25T03:35:48;8.87;;;5.17;;
5622;SDS011;2833;50.432;10.706;2023-04-25T03:38:15;6.10;;;5.20;;
5622;SDS011;2833;50.432;10.706;2023-04-25T03:40:40;12.23;;;6.03;;
5622;SDS011;2833;50.432;10.706;2023-04-25T03:43:05;8.63;;;5.90;;
5622;SDS011;2833;50.432;10.706;2023-04-25T03:45:30;7.27;;;5.80;;
5622;SDS011;2833;50.432;10.706;2023-04-25T03:47:56;6.70;;;5.13;;
5622;SDS011;2833;50.432;10.706;2023-04-25T03:50:21;6.77;;;5.40;;
5622;SDS011;2833;50.432;10.706;2023-04-25T03:52:46;7.50;;;5.80;;
5622;SDS011;2833;50.432;10.706;2023-04-25T03:55:11;7.53;;;6.13;;
5622;SDS011;2833;50.432;10.706;2023-04-25T03:57:36;7.37;;;5.80;;
5622;SDS011;2833;50.432;10.706;2023-04-25T04:00:02;7.30;;;5.80;;
5622;SDS011;2833;50.432;10.706;2023-04-25T04:02:28;7.53;;;5.50;;
5622;SDS011;2833;50.432;10.706;2023-04-25T04:04:54;6.03;;;5.40;;
5622;SDS011;2833;50.432;10.706;2023-04-25T04:07:21;8.83;;;5.63;;
5622;SDS011;2833;50.432;10.706;2023-04-25T04:09:46;6.57;;;5.70;;
5622;SDS011;2833;50.432;10.706;2023-04-25T04:12:11;8.17;;;4.97;;
5622;SDS011;2833;50.432;10.706;2023-04-25T04:14:36;9.40;;;4.67;;
5622;SDS011;2833;50.432;10.706;2023-04-25T04:17:02;5.73;;;4.77;;
5622;SDS011;2833;50.432;10.706;2023-04-25T04:19:27;8.23;;;5.37;;
5622;SDS011;2833;50.432;10.706;2023-04-25T04:21:52;8.93;;;6.00;;
5622;SDS011;2833;50.432;10.706;2023-04-25T04:24:17;5.90;;;4.70;;
5622;SDS011;2833;50.432;10.706;2023-04-25T04:26:43;5.83;;;5.10;;
5622;SDS011;2833;50.432;10.706;2023-04-25T04:29:10;7.00;;;5.20;;
5622;SDS011;2833;50.432;10.706;2023-04-25T04:31:35;7.10;;;5.80;;
5622;SDS011;2833;50.432;10.706;2023-04-25T04:34:01;9.97;;;5.70;;
5622;SDS011;2833;50.432;10.706;2023-04-25T04:36:26;7.67;;;5.43;;
5622;SDS011;2833;50.432;10.706;2023-04-25T04:38:52;11.57;;;5.10;;
5622;SDS011;2833;50.432;10.706;2023-04-25T04:41:17;5.97;;;5.20;;
5622;SDS011;2833;50.432;10.706;2023-04-25T04:43:44;10.40;;;6.10;;
5622;SDS011;2833;50.432;10.706;2023-04-25T04:46:09;11.40;;;5.80;;
5622;SDS011;2833;50.432;10.706;2023-04-25T04:48:35;7.73;;;5.83;;
5622;SDS011;2833;50.432;10.706;2023-04-25T04:51:00;30.77;;;18.53;;
5622;SDS011;2833;50.432;10.706;2023-04-25T04:53:25;70.13;;;31.03;;
5622;SDS011;2833;50.432;10.706;2023-04-25T04:55:51;12.00;;;8.63;;
5622;SDS011;2833;50.432;10.706;2023-04-25T04:58:16;27.80;;;17.00;;
5622;SDS011;2833;50.432;10.706;2023-04-25T05:00:41;20.60;;;13.80;;
5622;SDS011;2833;50.432;10.706;2023-04-25T05:03:06;14.07;;;9.23;;
5622;SDS011;2833;50.432;10.706;2023-04-25T05:05:32;9.73;;;6.70;;
5622;SDS011;2833;50.432;10.706;2023-04-25T05:07:57;9.43;;;7.30;;
5622;SDS011;2833;50.432;10.706;2023-04-25T05:10:23;10.93;;;6.83;;
5622;SDS011;2833;50.432;10.706;2023-04-25T05:12:49;8.60;;;6.47;;
5622;SDS011;2833;50.432;10.706;2023-04-25T05:15:14;10.33;;;6.60;;
5622;SDS011;2833;50.432;10.706;2023-04-25T05:17:39;10.50;;;6.60;;
5622;SDS011;2833;50.432;10.706;2023-04-25T05:20:05;8.07;;;6.40;;
5622;SDS011;2833;50.432;10.706;2023-04-25T05:22:32;15.83;;;9.30;;
5622;SDS011;2833;50.432;10.706;2023-04-25T05:24:57;40.07;;;19.93;;
5622;SDS011;2833;50.432;10.706;2023-04-25T05:27:22;14.57;;;10.87;;
5622;SDS011;2833;50.432;10.706;2023-04-25T05:29:47;8.77;;;6.43;;
5622;SDS011;2833;50.432;10.706;2023-04-25T05:32:12;7.20;;;5.60;;
5622;SDS011;2833;50.432;10.706;2023-04-25T05:34:37;11.90;;;7.90;;
5622;SDS011;2833;50.432;10.706;2023-04-25T05:37:03;11.03;;;6.93;;
5622;SDS011;2833;50.432;10.706;2023-04-25T05:39:28;10.43;;;6.30;;
5622;SDS011;2833;50.432;10.706;2023-04-25T05:41:53;8.50;;;6.73;;
5622;SDS011;2833;50.432;10.706;2023-04-25T05:44:19;13.30;;;7.60;;
5622;SDS011;2833;50.432;10.706;2023-04-25T05:46:44;11.70;;;7.03;;
5622;SDS011;2833;50.432;10.706;2023-04-25T05:49:09;11.57;;;7.23;;
5622;SDS011;2833;50.432;10.706;2023-04-25T05:51:35;10.30;;;4.87;;
5622;SDS011;2833;50.432;10.706;2023-04-25T05:54:00;7.20;;;5.13;;
5622;SDS011;2833;50.432;10.706;2023-04-25T05:56:25;9.47;;;4.47;;
5622;SDS011;2833;50.432;10.706;2023-04-25T05:58:51;5.80;;;4.27;;
5622;SDS011;2833;50.432;10.706;2023-04-25T06:01:16;6.33;;;4.60;;
5622;SDS011;2833;50.432;10.706;2023-04-25T06:03:41;4.63;;;3.97;;
5622;SDS011;2833;50.432;10.706;2023-04-25T06:06:08;7.30;;;4.53;;
5622;SDS011;2833;50.432;10.706;2023-04-25T06:08:33;5.77;;;4.57;;
5622;SDS011;2833;50.432;10.706;2023-04-25T06:10:58;7.33;;;3.93;;
5622;SDS011;2833;50.432;10.706;2023-04-25T06:13:23;7.10;;;4.20;;
5622;SDS011;2833;50.432;10.706;2023-04-25T06:15:48;8.63;;;4.07;;
5622;SDS011;2833;50.432;10.706;2023-04-25T06:18:13;5.57;;;3.90;;
5622;SDS011;2833;50.432;10.706;2023-04-25T06:20:39;6.17;;;4.27;;
5622;SDS011;2833;50.432;10.706;2023-04-25T06:23:04;6.83;;;4.40;;
5622;SDS011;2833;50.432;10.706;2023-04-25T06:25:29;6.20;;;4.30;;
5622;SDS011;2833;50.432;10.706;2023-04-25T06:27:55;6.03;;;3.63;;
5622;SDS011;2833;50.432;10.706;2023-04-25T06:30:20;7.90;;;5.23;;
5622;SDS011;2833;50.432;10.706;2023-04-25T06:32:48;5.80;;;3.63;;
5622;SDS011;2833;50.432;10.706;2023-04-25T06:35:13;9.33;;;4.10;;
5622;SDS011;2833;50.432;10.706;2023-04-25T06:37:38;5.43;;;4.00;;
5622;SDS011;2833;50.432;10.706;2023-04-25T06:40:04;8.70;;;3.70;;
5622;SDS011;2833;50.432;10.706;2023-04-25T06:42:29;6.20;;;3.97;;
5622;SDS011;2833;50.432;10.706;2023-04-25T06:44:54;8.87;;;6.60;;
5622;SDS011;2833;50.432;10.706;2023-04-25T06:47:20;11.23;;;7.53;;
5622;SDS011;2833;50.432;10.706;2023-04-25T06:49:45;8.00;;;4.47;;
5622;SDS011;2833;50.432;10.706;2023-04-25T06:52:11;5.40;;;3.23;;
5622;SDS011;2833;50.432;10.706;2023-04-25T06:54:36;6.50;;;2.40;;
5622;SDS011;2833;50.432;10.706;2023-04-25T06:57:01;5.17;;;4.50;;
5622;SDS011;2833;50.432;10.706;2023-04-25T06:59:26;4.70;;;3.40;;
5622;SDS011;2833;50.432;10.706;2023-04-25T07:01:51;1.87;;;1.63;;
5622;SDS011;2833;50.432;10.706;2023-04-25T07:04:17;4.07;;;3.13;;
5622;SDS011;2833;50.432;10.706;2023-04-25T07:06:42;6.40;;;4.23;;
5622;SDS011;2833;50.432;10.706;2023-04-25T07:09:08;4.93;;;2.33;;
5622;SDS011;2833;50.432;10.706;2023-04-25T07:11:34;11.20;;;4.47;;
5622;SDS011;2833;50.432;10.706;2023-04-25T07:13:59;13.10;;;5.90;;
5622;SDS011;2833;50.432;10.706;2023-04-25T07:16:25;27.57;;;11.80;;
5622;SDS011;2833;50.432;10.706;2023-04-25T07:18:50;14.70;;;5.60;;
5622;SDS011;2833;50.432;10.706;2023-04-25T07:21:15;14.43;;;6.50;;
5622;SDS011;2833;50.432;10.706;2023-04-25T07:23:40;4.17;;;3.70;;
5622;SDS011;2833;50.432;10.706;2023-04-25T07:26:05;4.30;;;2.83;;
5622;SDS011;2833;50.432;10.706;2023-04-25T07:28:31;4.10;;;3.37;;
5622;SDS011;2833;50.432;10.706;2023-04-25T07:30:56;6.50;;;3.67;;
5622;SDS011;2833;50.432;10.706;2023-04-25T07:33:23;4.43;;;3.40;;
5622;SDS011;2833;50.432;10.706;2023-04-25T07:35:48;4.30;;;3.10;;
5622;SDS011;2833;50.432;10.706;2023-04-25T07:38:13;8.10;;;4.10;;
5622;SDS011;2833;50.432;10.706;2023-04-25T07:40:38;4.60;;;3.20;;
5622;SDS011;2833;50.432;10.706;2023-04-25T07:43:03;7.03;;;3.70;;
5622;SDS011;2833;50.432;10.706;2023-04-25T07:45:29;4.53;;;2.47;;
5622;SDS011;2833;50.432;10.706;2023-04-25T07:47:54;9.63;;;5.80;;
5622;SDS011;2833;50.432;10.706;2023-04-25T07:50:19;5.57;;;3.57;;
5622;SDS011;2833;50.432;10.706;2023-04-25T07:52:44;7.97;;;3.40;;
5622;SDS011;2833;50.432;10.706;2023-04-25T07:55:10;2.60;;;2.40;;
5622;SDS011;2833;50.432;10.706;2023-04-25T07:57:35;2.87;;;2.67;;
5622;SDS011;2833;50.432;10.706;2023-04-25T08:00:00;3.00;;;2.53;;
5622;SDS011;2833;50.432;10.706;2023-04-25T08:02:25;2.53;;;2.33;;
5622;SDS011;2833;50.432;10.706;2023-04-25T08:04:53;2.80;;;2.60;;
5622;SDS011;2833;50.432;10.706;2023-04-25T08:07:18;2.80;;;2.60;;
5622;SDS011;2833;50.432;10.706;2023-04-25T08:09:43;2.50;;;2.30;;
5622;SDS011;2833;50.432;10.706;2023-04-25T08:12:08;10.83;;;5.00;;
5622;SDS011;2833;50.432;10.706;2023-04-25T08:14:34;6.30;;;3.63;;
5622;SDS011;2833;50.432;10.706;2023-04-25T08:17:02;3.90;;;2.60;;
5622;SDS011;2833;50.432;10.706;2023-04-25T08:19:28;2.77;;;2.50;;
5622;SDS011;2833;50.432;10.706;2023-04-25T08:21:53;3.07;;;2.63;;
5622;SDS011;2833;50.432;10.706;2023-04-25T08:24:20;2.83;;;2.57;;
5622;SDS011;2833;50.432;10.706;2023-04-25T08:26:45;2.70;;;2.50;;
5622;SDS011;2833;50.432;10.706;2023-04-25T08:29:10;4.73;;;2.90;;
5622;SDS011;2833;50.432;10.706;2023-04-25T08:31:36;3.97;;;2.73;;
5622;SDS011;2833;50.432;10.706;2023-04-25T08:34:01;8.60;;;2.87;;
5622;SDS011;2833;50.432;10.706;2023-04-25T08:36:26;4.13;;;2.57;;
5622;SDS011;2833;50.432;10.706;2023-04-25T08:38:53;3.93;;;2.80;;
5622;SDS011;2833;50.432;10.706;2023-04-25T08:41:18;3.33;;;2.67;;
5622;SDS011;2833;50.432;10.706;2023-04-25T08:43:45;3.57;;;2.53;;
5622;SDS011;2833;50.432;10.706;2023-04-25T08:46:13;2.93;;;2.70;;
5622;SDS011;2833;50.432;10.706;2023-04-25T08:48:41;3.53;;;2.77;;
5622;SDS011;2833;50.432;10.706;2023-04-25T08:51:07;3.87;;;2.87;;
5622;SDS011;2833;50.432;10.706;2023-04-25T08:53:33;5.17;;;2.87;;
5622;SDS011;2833;50.432;10.706;2023-04-25T08:56:00;3.50;;;2.70;;
5622;SDS011;2833;50.432;10.706;2023-04-25T08:58:27;4.63;;;2.90;;
5622;SDS011;2833;50.432;10.706;2023-04-25T09:00:52;11.77;;;3.20;;
5622;SDS011;2833;50.432;10.706;2023-04-25T09:03:18;7.93;;;4.80;;
5622;SDS011;2833;50.432;10.706;2023-04-25T09:05:43;6.63;;;4.17;;
5622;SDS011;2833;50.432;10.706;2023-04-25T09:08:08;3.10;;;2.70;;
5622;SDS011;2833;50.432;10.706;2023-04-25T09:10:34;3.30;;;2.47;;
5622;SDS011;2833;50.432;10.706;2023-04-25T09:13:06;2.90;;;2.67;;
5622;SDS011;2833;50.432;10.706;2023-04-25T09:15:33;2.70;;;2.50;;
5622;SDS011;2833;50.432;10.706;2023-04-25T09:18:11;3.63;;;2.60;;
5622;SDS011;2833;50.432;10.706;2023-04-25T09:20:42;13.97;;;7.97;;
5622;SDS011;2833;50.432;10.706;2023-04-25T09:23:08;23.90;;;12.27;;
5622;SDS011;2833;50.432;10.706;2023-04-25T09:25:33;26.47;;;14.07;;
5622;SDS011;2833;50.432;10.706;2023-04-25T09:28:00;26.17;;;14.33;;
5622;SDS011;2833;50.432;10.706;2023-04-25T09:30:29;10.77;;;6.40;;
5622;SDS011;2833;50.432;10.706;2023-04-25T09:33:13;3.43;;;2.77;;
5622;SDS011;2833;50.432;10.706;2023-04-25T09:35:40;6.80;;;3.70;;
5622;SDS011;2833;50.432;10.706;2023-04-25T09:38:12;6.83;;;3.73;;
5622;SDS011;2833;50.432;10.706;2023-04-25T09:43:09;3.53;;;3.23;;
5622;SDS011;2833;50.432;10.706;2023-04-25T09:45:40;4.30;;;3.30;;
5622;SDS011;2833;50.432;10.706;2023-04-25T09:48:06;2.10;;;1.97;;
5622;SDS011;2833;50.432;10.706;2023-04-25T09:50:31;3.50;;;2.80;;
5622;SDS011;2833;50.432;10.706;2023-04-25T09:53:05;5.87;;;3.73;;
5622;SDS011;2833;50.432;10.706;2023-04-25T09:55:31;4.77;;;3.47;;
5622;SDS011;2833;50.432;10.706;2023-04-25T09:57:57;4.47;;;3.60;;
5622;SDS011;2833;50.432;10.706;2023-04-25T10:00:25;11.67;;;5.50;;
5622;SDS011;2833;50.432;10.706;2023-04-25T10:02:50;5.73;;;4.17;;
5622;SDS011;2833;50.432;10.706;2023-04-25T10:05:16;8.20;;;5.10;;
5622;SDS011;2833;50.432;10.706;2023-04-25T10:07:42;6.87;;;5.30;;
5622;SDS011;2833;50.432;10.706;2023-04-25T10:10:07;7.80;;;5.50;;
5622;SDS011;2833;50.432;10.706;2023-04-25T10:12:33;5.13;;;4.13;;
5622;SDS011;2833;50.432;10.706;2023-04-25T10:14:59;5.27;;;3.30;;
5622;SDS011;2833;50.432;10.706;2023-04-25T10:17:26;4.00;;;3.53;;
5622;SDS011;2833;50.432;10.706;2023-04-25T10:19:52;3.80;;;3.47;;
5622;SDS011;2833;50.432;10.706;2023-04-25T10:22:20;7.93;;;3.43;;
5622;SDS011;2833;50.432;10.706;2023-04-25T10:24:48;10.87;;;6.00;;
5622;SDS011;2833;50.432;10.706;2023-04-25T10:27:14;6.57;;;4.47;;
5622;SDS011;2833;50.432;10.706;2023-04-25T10:29:40;1.77;;;1.63;;
5622;SDS011;2833;50.432;10.706;2023-04-25T10:32:06;7.67;;;4.90;;
5622;SDS011;2833;50.432;10.706;2023-04-25T10:37:04;5.33;;;3.93;;
5622;SDS011;2833;50.432;10.706;2023-04-25T10:39:30;4.23;;;2.57;;
5622;SDS011;2833;50.432;10.706;2023-04-25T10:41:57;7.47;;;4.63;;
5622;SDS011;2833;50.432;10.706;2023-04-25T10:44:25;7.10;;;4.33;;
5622;SDS011;2833;50.432;10.706;2023-04-25T10:46:51;7.10;;;5.20;;
5622;SDS011;2833;50.432;10.706;2023-04-25T10:52:24;5.07;;;2.80;;
5622;SDS011;2833;50.432;10.706;2023-04-25T10:54:53;8.17;;;4.17;;
5622;SDS011;2833;50.432;10.706;2023-04-25T11:00:15;2.60;;;1.83;;
5622;SDS011;2833;50.432;10.706;2023-04-25T11:03:01;6.50;;;3.80;;
5622;SDS011;2833;50.432;10.706;2023-04-25T11:07:52;1.77;;;1.67;;
5622;SDS011;2833;50.432;10.706;2023-04-25T11:10:18;3.13;;;1.87;;
5622;SDS011;2833;50.432;10.706;2023-04-25T11:12:44;3.30;;;2.53;;
5622;SDS011;2833;50.432;10.706;2023-04-25T11:15:09;2.50;;;2.30;;
5622;SDS011;2833;50.432;10.706;2023-04-25T11:17:34;2.97;;;2.40;;
5622;SDS011;2833;50.432;10.706;2023-04-25T11:20:01;2.47;;;2.27;;
5622;SDS011;2833;50.432;10.706;2023-04-25T11:22:29;6.80;;;1.70;;
5622;SDS011;2833;50.432;10.706;2023-04-25T11:24:54;4.37;;;2.80;;
5622;SDS011;2833;50.432;10.706;2023-04-25T11:27:20;3.23;;;2.73;;
5622;SDS011;2833;50.432;10.706;2023-04-25T11:29:46;3.50;;;3.00;;
5622;SDS011;2833;50.432;10.706;2023-04-25T11:32:13;3.20;;;2.80;;
5622;SDS011;2833;50.432;10.706;2023-04-25T11:34:38;4.50;;;2.43;;
5622;SDS011;2833;50.432;10.706;2023-04-25T11:37:03;2.50;;;2.00;;
5622;SDS011;2833;50.432;10.706;2023-04-25T11:39:29;4.33;;;2.43;;
5622;SDS011;2833;50.432;10.706;2023-04-25T11:41:54;3.07;;;2.77;;
5622;SDS011;2833;50.432;10.706;2023-04-25T11:44:20;2.80;;;1.70;;
5622;SDS011;2833;50.432;10.706;2023-04-25T11:46:46;2.20;;;2.00;;
5622;SDS011;2833;50.432;10.706;2023-04-25T11:49:11;4.00;;;0.83;;
5622;SDS011;2833;50.432;10.706;2023-04-25T11:51:40;2.60;;;2.40;;
5622;SDS011;2833;50.432;10.706;2023-04-25T11:54:05;2.20;;;1.57;;
5622;SDS011;2833;50.432;10.706;2023-04-25T11:56:30;3.30;;;2.67;;
5622;SDS011;2833;50.432;10.706;2023-04-25T12:01:40;1.60;;;1.50;;
5622;SDS011;2833;50.432;10.706;2023-04-25T12:04:15;2.10;;;1.83;;
5622;SDS011;2833;50.432;10.706;2023-04-25T12:06:41;5.60;;;2.37;;
5622;SDS011;2833;50.432;10.706;2023-04-25T12:09:08;2.93;;;2.63;;
5622;SDS011;2833;50.432;10.706;2023-04-25T12:11:40;8.83;;;3.00;;
5622;SDS011;2833;50.432;10.706;2023-04-25T12:14:06;2.60;;;2.40;;
5622;SDS011;2833;50.432;10.706;2023-04-25T12:16:41;6.60;;;2.33;;
5622;SDS011;2833;50.432;10.706;2023-04-25T12:19:06;4.57;;;2.90;;
5622;SDS011;2833;50.432;10.706;2023-04-25T12:21:32;3.57;;;2.60;;
5622;SDS011;2833;50.432;10.706;2023-04-25T12:24:07;2.53;;;2.33;;
5622;SDS011;2833;50.432;10.706;2023-04-25T12:29:32;11.67;;;4.90;;
5622;SDS011;2833;50.432;10.706;2023-04-25T12:31:58;6.43;;;4.20;;
5622;SDS011;2833;50.432;10.706;2023-04-25T12:34:23;18.20;;;8.10;;
5622;SDS011;2833;50.432;10.706;2023-04-25T12:36:49;5.97;;;3.70;;
5622;SDS011;2833;50.432;10.706;2023-04-25T12:39:18;6.50;;;4.27;;
5622;SDS011;2833;50.432;10.706;2023-04-25T12:41:44;6.70;;;3.27;;
5622;SDS011;2833;50.432;10.706;2023-04-25T12:44:10;9.37;;;5.00;;
5622;SDS011;2833;50.432;10.706;2023-04-25T12:46:36;4.20;;;2.80;;
5622;SDS011;2833;50.432;10.706;2023-04-25T12:49:01;8.47;;;4.47;;
5622;SDS011;2833;50.432;10.706;2023-04-25T12:51:28;16.77;;;6.90;;
5622;SDS011;2833;50.432;10.706;2023-04-25T12:53:53;12.10;;;6.10;;
5622;SDS011;2833;50.432;10.706;2023-04-25T12:56:19;19.97;;;8.30;;
5622;SDS011;2833;50.432;10.706;2023-04-25T12:58:44;7.20;;;5.30;;
5622;SDS011;2833;50.432;10.706;2023-04-25T13:01:09;6.37;;;4.73;;
5622;SDS011;2833;50.432;10.706;2023-04-25T13:03:34;11.93;;;7.30;;
5622;SDS011;2833;50.432;10.706;2023-04-25T13:06:00;6.00;;;4.67;;
5622;SDS011;2833;50.432;10.706;2023-04-25T13:08:25;12.20;;;7.60;;
5622;SDS011;2833;50.432;10.706;2023-04-25T13:10:51;10.00;;;5.53;;
5622;SDS011;2833;50.432;10.706;2023-04-25T13:13:16;5.77;;;2.90;;
5622;SDS011;2833;50.432;10.706;2023-04-25T13:15:41;4.50;;;3.17;;
5622;SDS011;2833;50.432;10.706;2023-04-25T13:18:07;10.67;;;6.13;;
5622;SDS011;2833;50.432;10.706;2023-04-25T13:20:32;5.67;;;4.53;;
5622;SDS011;2833;50.432;10.706;2023-04-25T13:22:57;9.13;;;4.13;;
5622;SDS011;2833;50.432;10.706;2023-04-25T13:25:22;4.63;;;3.57;;
5622;SDS011;2833;50.432;10.706;2023-04-25T13:27:48;5.87;;;3.93;;
5622;SDS011;2833;50.432;10.706;2023-04-25T13:30:13;14.80;;;6.03;;
5622;SDS011;2833;50.432;10.706;2023-04-25T13:32:38;6.83;;;4.53;;
5622;SDS011;2833;50.432;10.706;2023-04-25T13:35:04;12.93;;;4.53;;
5622;SDS011;2833;50.432;10.706;2023-04-25T13:37:30;6.07;;;3.83;;
5622;SDS011;2833;50.432;10.706;2023-04-25T13:39:57;10.93;;;4.03;;
5622;SDS011;2833;50.432;10.706;2023-04-25T13:42:23;5.73;;;4.23;;
5622;SDS011;2833;50.432;10.706;2023-04-25T13:44:48;12.10;;;5.93;;
5622;SDS011;2833;50.432;10.706;2023-04-25T13:47:13;9.90;;;5.10;;
5622;SDS011;2833;50.432;10.706;2023-04-25T13:49:38;5.20;;;3.10;;
5622;SDS011;2833;50.432;10.706;2023-04-25T13:52:03;7.50;;;4.50;;
5622;SDS011;2833;50.432;10.706;2023-04-25T13:54:29;14.80;;;8.90;;
5622;SDS011;2833;50.432;10.706;2023-04-25T13:56:54;20.30;;;11.87;;
5622;SDS011;2833;50.432;10.706;2023-04-25T13:59:23;9.60;;;4.20;;
5622;SDS011;2833;50.432;10.706;2023-04-25T14:01:48;6.60;;;3.43;;
5622;SDS011;2833;50.432;10.706;2023-04-25T14:04:13;7.10;;;3.70;;
5622;SDS011;2833;50.432;10.706;2023-04-25T14:06:39;4.80;;;3.10;;
5622;SDS011;2833;50.432;10.706;2023-04-25T14:09:04;5.47;;;3.50;;
5622;SDS011;2833;50.432;10.706;2023-04-25T14:11:31;8.93;;;3.80;;
5622;SDS011;2833;50.432;10.706;2023-04-25T14:13:56;12.20;;;4.13;;
5622;SDS011;2833;50.432;10.706;2023-04-25T14:16:21;6.13;;;3.27;;
5622;SDS011;2833;50.432;10.706;2023-04-25T14:18:48;4.27;;;2.60;;
5622;SDS011;2833;50.432;10.706;2023-04-25T14:21:13;3.80;;;3.10;;
5622;SDS011;2833;50.432;10.706;2023-04-25T14:23:38;4.50;;;3.30;;
5622;SDS011;2833;50.432;10.706;2023-04-25T14:26:03;1.73;;;1.63;;
5622;SDS011;2833;50.432;10.706;2023-04-25T14:28:29;11.00;;;3.33;;
5622;SDS011;2833;50.432;10.706;2023-04-25T14:30:54;8.47;;;3.40;;
5622;SDS011;2833;50.432;10.706;2023-04-25T14:33:20;3.30;;;2.00;;
5622;SDS011;2833;50.432;10.706;2023-04-25T14:35:45;5.37;;;2.33;;
5622;SDS011;2833;50.432;10.706;2023-04-25T14:38:11;14.00;;;6.33;;
5622;SDS011;2833;50.432;10.706;2023-04-25T14:40:36;5.27;;;3.40;;
5622;SDS011;2833;50.432;10.706;2023-04-25T14:43:02;4.40;;;3.30;;
5622;SDS011;2833;50.432;10.706;2023-04-25T14:45:27;11.83;;;4.87;;
5622;SDS011;2833;50.432;10.706;2023-04-25T14:47:52;10.33;;;4.97;;
5622;SDS011;2833;50.432;10.706;2023-04-25T14:50:18;10.10;;;4.60;;
5622;SDS011;2833;50.432;10.706;2023-04-25T14:52:43;8.57;;;4.20;;
5622;SDS011;2833;50.432;10.706;2023-04-25T14:55:09;8.60;;;3.17;;
5622;SDS011;2833;50.432;10.706;2023-04-25T14:57:35;7.33;;;4.90;;
5622;SDS011;2833;50.432;10.706;2023-04-25T15:00:00;8.73;;;4.50;;
5622;SDS011;2833;50.432;10.706;2023-04-25T15:02:26;7.87;;;3.93;;
5622;SDS011;2833;50.432;10.706;2023-04-25T15:04:51;10.60;;;4.30;;
5622;SDS011;2833;50.432;10.706;2023-04-25T15:07:16;11.07;;;5.83;;
5622;SDS011;2833;50.432;10.706;2023-04-25T15:09:42;5.10;;;3.17;;